Time;durP1;ratioP1;P1;durP2;ratioP2;P2;SDS_P1;SDS_P2;PMS_P1;PMS_P2;Temp;Humidity;BMP_temperature;BMP_pressure;BME280_temperature;BME280_humidity;BME280_pressure;Samples;Min_cycle;Max_cycle;Signal;HPM_P1;HPM_P2
2024/02/08 00:01:12;;;;;;;44.25;33.03;;;8.00;99.90;;;;;;5040277;28;20280;-77
2024/02/08 00:03:40;;;;;;;43.28;34.30;;;8.00;99.90;;;;;;5041456;28;20744;-77
2024/02/08 00:06:07;;;;;;;38.65;30.95;;;7.90;99.90;;;;;;5042716;28;20215;-77
2024/02/08 00:08:35;;;;;;;36.90;29.33;;;7.90;99.90;;;;;;5041312;28;20242;-78
2024/02/08 00:11:06;;;;;;;31.33;26.23;;;7.80;99.90;;;;;;5040786;28;20318;-78
2024/02/08 00:13:33;;;;;;;34.13;27.08;;;7.90;99.90;;;;;;5043316;28;20214;-78
2024/02/08 00:16:00;;;;;;;32.95;27.13;;;7.90;99.90;;;;;;5039946;28;20725;-77
2024/02/08 00:18:28;;;;;;;32.33;25.70;;;7.80;99.90;;;;;;5039480;28;20864;-77
2024/02/08 00:20:54;;;;;;;28.35;23.85;;;7.80;99.90;;;;;;5040184;28;20230;-78
2024/02/08 00:23:21;;;;;;;24.42;21.30;;;7.80;99.90;;;;;;5045036;28;20231;-77
2024/02/08 00:25:50;;;;;;;28.17;23.20;;;7.80;99.90;;;;;;5043716;28;20277;-78
2024/02/08 00:28:21;;;;;;;25.67;22.80;;;7.80;99.90;;;;;;5044468;28;20562;-78
2024/02/08 00:30:48;;;;;;;26.27;22.38;;;7.80;99.90;;;;;;5043566;28;20242;-78
2024/02/08 00:33:15;;;;;;;27.55;23.58;;;7.70;99.90;;;;;;5042334;28;20275;-78
2024/02/08 00:35:42;;;;;;;28.95;23.25;;;7.80;99.90;;;;;;5044866;28;20293;-77
2024/02/08 00:38:09;;;;;;;26.90;23.02;;;7.80;99.90;;;;;;5042241;28;20249;-78
2024/02/08 00:40:35;;;;;;;29.08;24.05;;;7.80;99.90;;;;;;5040956;28;20284;-76
2024/02/08 00:43:05;;;;;;;29.95;24.33;;;7.80;99.90;;;;;;5045170;28;20223;-78
2024/02/08 00:45:34;;;;;;;28.30;23.58;;;7.80;99.90;;;;;;5041089;28;20231;-77
2024/02/08 00:48:01;;;;;;;29.05;24.15;;;7.70;99.90;;;;;;5043467;28;20203;-78
2024/02/08 00:50:28;;;;;;;30.10;23.83;;;7.70;99.90;;;;;;5038962;28;20242;-77
2024/02/08 00:52:55;;;;;;;33.63;26.30;;;7.70;99.90;;;;;;5042741;28;20222;-79
2024/02/08 00:55:24;;;;;;;32.33;27.08;;;7.80;99.90;;;;;;5042557;28;20222;-77
2024/02/08 00:57:53;;;;;;;35.42;27.13;;;7.80;99.90;;;;;;5041872;28;20278;-77
2024/02/08 01:00:20;;;;;;;38.10;30.08;;;7.80;99.90;;;;;;5042430;28;20717;-79
2024/02/08 01:02:49;;;;;;;38.40;30.67;;;7.80;99.90;;;;;;5036493;28;20211;-77
2024/02/08 01:05:19;;;;;;;35.42;29.33;;;7.80;99.90;;;;;;5041205;28;20222;-77
2024/02/08 01:07:46;;;;;;;40.28;31.55;;;7.80;99.90;;;;;;5042314;28;20203;-77
2024/02/08 01:10:13;;;;;;;36.45;29.23;;;7.80;99.90;;;;;;5037123;28;20229;-78
2024/02/08 01:12:42;;;;;;;40.90;32.20;;;7.80;99.90;;;;;;5041351;28;20199;-78
2024/02/08 01:15:14;;;;;;;37.67;31.73;;;7.80;99.90;;;;;;5042008;28;20219;-78
2024/02/08 01:17:41;;;;;;;38.55;32.03;;;7.80;99.90;;;;;;5041240;28;20249;-77
2024/02/08 01:20:10;;;;;;;37.80;31.40;;;7.80;99.90;;;;;;5041626;28;20250;-79
2024/02/08 01:22:37;;;;;;;39.53;31.88;;;7.80;99.90;;;;;;5043300;28;20284;-78
2024/02/08 01:25:05;;;;;;;37.50;31.15;;;7.80;99.90;;;;;;5042029;28;20211;-79
2024/02/08 01:27:32;;;;;;;38.67;31.10;;;7.80;99.90;;;;;;5043355;28;20570;-78
2024/02/08 01:29:59;;;;;;;39.97;32.72;;;7.90;99.90;;;;;;5041286;28;20276;-78
2024/02/08 01:32:27;;;;;;;35.15;29.50;;;7.80;99.90;;;;;;5045826;28;20198;-76
2024/02/08 01:34:55;;;;;;;42.78;33.33;;;7.90;99.90;;;;;;5042392;28;20317;-78
2024/02/08 01:37:23;;;;;;;38.25;31.40;;;7.90;99.90;;;;;;5040387;28;20208;-77
2024/02/08 01:39:50;;;;;;;44.30;33.53;;;7.90;99.90;;;;;;5042036;28;20234;-77
2024/02/08 01:42:17;;;;;;;44.88;35.53;;;7.90;99.90;;;;;;5045089;28;20708;-79
2024/02/08 01:44:46;;;;;;;45.13;35.67;;;7.90;99.90;;;;;;5045118;28;20215;-79
2024/02/08 01:47:13;;;;;;;46.72;37.15;;;7.90;99.90;;;;;;5043674;28;20250;-78
2024/02/08 01:49:41;;;;;;;44.35;35.53;;;7.90;99.90;;;;;;5039993;28;20299;-79
2024/02/08 01:52:10;;;;;;;40.35;32.45;;;7.90;99.90;;;;;;5054739;28;20215;-78
2024/02/08 01:54:43;;;;;;;54.67;40.95;;;7.90;99.90;;;;;;5047112;28;20223;-77
2024/02/08 01:57:12;;;;;;;48.03;39.05;;;7.90;99.90;;;;;;5043991;28;20211;-77
2024/02/08 01:59:41;;;;;;;45.85;35.92;;;7.80;99.90;;;;;;5037195;28;20237;-78
2024/02/08 02:02:10;;;;;;;47.63;37.38;;;7.80;99.90;;;;;;5041017;28;20779;-78
2024/02/08 02:04:39;;;;;;;43.53;34.85;;;7.80;99.90;;;;;;5040331;28;20210;-77
2024/02/08 02:07:07;;;;;;;41.90;34.33;;;7.80;99.90;;;;;;5043155;28;20219;-77
2024/02/08 02:09:35;;;;;;;42.90;34.15;;;7.70;99.90;;;;;;5040876;28;20222;-78
2024/02/08 02:12:07;;;;;;;39.22;32.67;;;7.70;99.90;;;;;;5044552;28;20222;-78
2024/02/08 02:14:35;;;;;;;39.10;31.27;;;7.70;99.90;;;;;;5042685;28;20290;-77
2024/02/08 02:17:12;;;;;;;43.55;33.35;;;7.70;99.90;;;;;;5035953;28;20227;-78
2024/02/08 02:19:39;;;;;;;45.85;36.40;;;7.70;99.90;;;;;;5035129;28;20242;-77
2024/02/08 02:22:10;;;;;;;44.42;34.63;;;7.70;99.90;;;;;;5038133;28;20319;-77
2024/02/08 02:24:37;;;;;;;43.28;33.92;;;7.70;99.90;;;;;;5040305;28;20492;-77
2024/02/08 02:27:05;;;;;;;43.00;34.53;;;7.70;99.90;;;;;;5042022;28;20225;-77
2024/02/08 02:29:32;;;;;;;40.13;31.20;;;7.70;99.90;;;;;;5038140;28;20624;-78
2024/02/08 02:32:01;;;;;;;46.75;36.53;;;7.70;99.90;;;;;;5040520;28;20223;-78
2024/02/08 02:34:30;;;;;;;39.17;31.35;;;7.80;99.90;;;;;;5041710;28;20272;-76
2024/02/08 02:36:59;;;;;;;37.97;31.08;;;7.80;99.90;;;;;;5041631;28;20223;-76
2024/02/08 02:39:31;;;;;;;42.63;34.60;;;7.80;99.90;;;;;;5036545;28;20792;-77
2024/02/08 02:41:58;;;;;;;47.45;37.50;;;7.80;99.90;;;;;;5037310;28;20210;-78
2024/02/08 02:44:27;;;;;;;47.67;36.13;;;7.80;99.90;;;;;;5038314;28;20309;-79
2024/02/08 02:46:56;;;;;;;42.85;35.90;;;7.80;99.90;;;;;;5036795;28;20258;-78
2024/02/08 02:49:23;;;;;;;43.55;35.42;;;7.80;99.90;;;;;;5038557;28;20222;-78
2024/02/08 02:51:52;;;;;;;45.00;34.97;;;7.80;99.90;;;;;;5039540;28;20302;-78
2024/02/08 02:54:20;;;;;;;36.63;29.73;;;7.80;99.90;;;;;;5034047;28;20227;-77
2024/02/08 02:56:50;;;;;;;43.10;34.67;;;7.80;99.90;;;;;;5037134;28;20302;-78
2024/02/08 02:59:18;;;;;;;40.15;32.38;;;7.70;99.90;;;;;;5039377;28;20230;-77
2024/02/08 03:01:47;;;;;;;40.47;33.65;;;7.70;99.90;;;;;;5039402;28;20304;-77
2024/02/08 03:04:15;;;;;;;42.75;33.20;;;7.70;99.90;;;;;;5033987;28;20721;-77
2024/02/08 03:06:45;;;;;;;45.42;36.20;;;7.80;99.90;;;;;;5040701;28;20215;-77
2024/02/08 03:09:15;;;;;;;44.22;34.97;;;7.80;99.90;;;;;;5039568;28;20832;-77
2024/02/08 03:11:42;;;;;;;38.83;32.30;;;7.70;99.90;;;;;;5042024;28;20721;-77
2024/02/08 03:14:11;;;;;;;39.15;30.92;;;7.70;99.90;;;;;;5041437;28;20265;-76
2024/02/08 03:16:41;;;;;;;35.45;28.13;;;7.70;99.90;;;;;;5043717;28;20763;-77
2024/02/08 03:19:08;;;;;;;33.88;27.80;;;7.60;99.90;;;;;;5039201;28;20234;-76
2024/02/08 03:21:36;;;;;;;36.08;28.38;;;7.60;99.90;;;;;;5040085;28;20732;-77
2024/02/08 03:24:07;;;;;;;32.42;26.55;;;7.60;99.90;;;;;;5040007;28;20279;-77
2024/02/08 03:26:40;;;;;;;30.58;26.60;;;7.50;99.90;;;;;;5042049;28;20234;-77
2024/02/08 03:29:11;;;;;;;31.77;27.33;;;7.50;99.90;;;;;;5040682;28;20219;-78
2024/02/08 03:31:45;;;;;;;30.48;26.02;;;7.50;99.90;;;;;;5041966;28;20242;-77
2024/02/08 03:34:16;;;;;;;30.42;24.95;;;7.50;99.90;;;;;;5038705;28;20238;-78
2024/02/08 03:36:45;;;;;;;34.30;28.20;;;7.40;99.90;;;;;;5041101;28;20284;-77
2024/02/08 03:39:24;;;;;;;30.98;24.30;;;7.40;99.90;;;;;;5042861;28;20628;-77
2024/02/08 03:41:58;;;;;;;27.80;23.48;;;7.40;99.90;;;;;;5038826;28;20253;-78
2024/02/08 03:44:25;;;;;;;30.73;25.30;;;7.40;99.90;;;;;;5037201;28;20242;-77
2024/02/08 03:46:55;;;;;;;30.77;25.05;;;7.40;99.90;;;;;;5040866;28;20344;-77
2024/02/08 03:49:24;;;;;;;32.58;27.63;;;7.50;99.90;;;;;;5038089;28;20219;-77
2024/02/08 03:51:52;;;;;;;34.35;28.10;;;7.50;99.90;;;;;;5044497;28;20252;-78
2024/02/08 03:54:18;;;;;;;33.25;27.45;;;7.50;99.90;;;;;;5057516;28;20220;-75
2024/02/08 03:56:45;;;;;;;38.03;29.23;;;7.50;99.90;;;;;;5041654;28;20223;-76
2024/02/08 03:59:26;;;;;;;36.85;29.73;;;7.50;99.90;;;;;;5039476;28;20226;-77
2024/02/08 04:02:00;;;;;;;38.95;30.15;;;7.50;99.90;;;;;;5040761;28;20288;-78
2024/02/08 04:04:35;;;;;;;37.40;28.83;;;7.50;99.90;;;;;;5039874;28;20241;-77
2024/02/08 04:07:19;;;;;;;39.28;30.98;;;7.50;99.90;;;;;;5043019;28;20229;-77
2024/02/08 04:09:50;;;;;;;33.95;28.45;;;7.50;99.90;;;;;;5042661;28;20299;-78
2024/02/08 04:53:40;;;;;;;33.88;27.67;;;7.40;99.90;;;;;;5039788;28;20289;-76
2024/02/08 04:56:10;;;;;;;30.58;25.85;;;7.40;99.90;;;;;;5040015;28;20849;-76
2024/02/08 04:58:39;;;;;;;31.77;26.38;;;7.50;99.90;;;;;;5042230;28;20201;-77
2024/02/08 05:01:09;;;;;;;31.13;25.50;;;7.50;99.90;;;;;;5037213;28;20227;-76
2024/02/08 05:03:38;;;;;;;35.10;27.20;;;7.50;99.90;;;;;;5044888;28;20458;-75
2024/02/08 05:06:14;;;;;;;35.45;28.92;;;7.50;99.90;;;;;;5042017;28;20272;-76
2024/02/08 05:08:42;;;;;;;37.70;28.75;;;7.50;99.90;;;;;;5040125;28;20202;-76
2024/02/08 05:11:10;;;;;;;35.28;28.83;;;7.50;99.90;;;;;;5039222;28;20251;-74
2024/02/08 05:13:41;;;;;;;36.10;29.08;;;7.50;99.90;;;;;;5041770;28;20298;-76
2024/02/08 05:16:14;;;;;;;36.45;29.98;;;7.50;99.90;;;;;;5037710;28;20311;-75
2024/02/08 05:18:42;;;;;;;37.90;30.65;;;7.50;99.90;;;;;;5040264;28;20640;-76
2024/02/08 05:21:11;;;;;;;38.75;30.65;;;7.50;99.90;;;;;;5041137;28;20225;-76
2024/02/08 05:23:40;;;;;;;34.05;28.30;;;7.50;99.90;;;;;;5042156;28;20276;-77
2024/02/08 05:26:08;;;;;;;35.80;28.35;;;7.50;99.90;;;;;;5042796;28;20223;-78
2024/02/08 05:28:35;;;;;;;34.50;27.17;;;7.40;99.90;;;;;;5051905;28;20195;-77
2024/02/08 05:31:02;;;;;;;32.75;26.95;;;7.50;99.90;;;;;;5051823;28;20294;-78
2024/02/08 05:33:30;;;;;;;37.63;30.05;;;7.40;99.90;;;;;;5039798;28;20286;-78
2024/02/08 05:35:57;;;;;;;35.13;27.70;;;7.40;99.90;;;;;;5042029;28;20278;-77
2024/02/08 05:38:37;;;;;;;35.45;29.30;;;7.40;99.90;;;;;;5042562;28;20207;-78
2024/02/08 05:41:07;;;;;;;38.50;31.15;;;7.30;99.90;;;;;;5038928;28;20657;-77
2024/02/08 05:43:41;;;;;;;38.80;31.85;;;7.30;99.90;;;;;;5042230;28;20223;-76
2024/02/08 05:46:09;;;;;;;33.60;27.98;;;7.30;99.90;;;;;;5037696;28;20271;-76
2024/02/08 05:48:39;;;;;;;31.75;26.08;;;7.20;99.90;;;;;;5039715;28;20195;-76
2024/02/08 05:51:11;;;;;;;28.38;24.50;;;7.10;99.90;;;;;;5042119;28;20310;-76
2024/02/08 05:53:41;;;;;;;29.05;24.48;;;7.00;99.90;;;;;;5048052;28;20203;-77
2024/02/08 05:56:09;;;;;;;27.48;23.58;;;6.90;99.90;;;;;;5046549;28;20219;-76
2024/02/08 05:58:37;;;;;;;28.10;24.05;;;6.90;99.90;;;;;;5040439;28;20256;-75
2024/02/08 06:01:16;;;;;;;31.98;24.27;;;6.90;99.90;;;;;;5039526;28;20223;-79
2024/02/08 06:03:46;;;;;;;33.10;26.73;;;6.90;99.90;;;;;;5039221;28;20980;-77
2024/02/08 06:06:17;;;;;;;32.25;26.30;;;6.90;99.90;;;;;;5039587;28;20222;-76
2024/02/08 06:08:46;;;;;;;33.28;27.67;;;6.90;99.90;;;;;;5042576;28;20233;-78
2024/02/08 06:11:19;;;;;;;35.22;29.42;;;6.90;99.90;;;;;;5039294;28;20214;-78
2024/02/08 06:13:52;;;;;;;34.58;27.90;;;6.90;99.90;;;;;;5041629;28;20195;-77
2024/02/08 06:16:27;;;;;;;36.85;29.50;;;6.90;99.90;;;;;;5041034;28;20211;-77
2024/02/08 06:19:02;;;;;;;38.95;31.40;;;6.90;99.90;;;;;;5037641;28;20243;-77
2024/02/08 06:21:40;;;;;;;39.97;33.60;;;6.90;99.90;;;;;;5040852;28;20301;-79
2024/02/08 06:26:58;;;;;;;44.58;33.78;;;6.80;99.90;;;;;;5041028;28;20365;-77
2024/02/08 06:29:38;;;;;;;41.47;32.70;;;6.80;99.90;;;;;;5038235;28;20226;-76
2024/02/08 06:32:23;;;;;;;39.13;31.60;;;6.70;99.90;;;;;;5037506;28;20222;-76
2024/02/08 06:34:55;;;;;;;37.03;30.40;;;6.70;99.90;;;;;;5039016;28;20995;-77
2024/02/08 06:37:30;;;;;;;36.08;29.23;;;6.70;99.90;;;;;;5041473;28;20233;-77
2024/02/08 06:39:57;;;;;;;36.67;28.92;;;6.70;99.90;;;;;;5040086;28;20829;-78
2024/02/08 06:42:44;;;;;;;38.53;30.42;;;6.70;99.90;;;;;;5039967;28;20207;-77
2024/02/08 06:45:48;;;;;;;40.30;31.55;;;6.70;99.90;;;;;;5038154;28;20227;-76
2024/02/08 06:48:35;;;;;;;40.35;31.30;;;6.60;99.90;;;;;;5040716;28;20202;-78
2024/02/08 07:37:46;;;;;;;36.00;29.55;;;7.20;99.90;;;;;;5037155;28;20205;-78
2024/02/08 07:40:27;;;;;;;42.30;32.13;;;7.20;99.90;;;;;;5034937;28;20223;-78
2024/02/08 07:43:16;;;;;;;40.28;32.05;;;7.50;99.90;;;;;;5041555;28;20210;-77
2024/02/08 07:45:47;;;;;;;35.08;28.05;;;7.40;99.90;;;;;;5044520;28;20225;-77
2024/02/08 07:48:14;;;;;;;39.75;30.98;;;7.40;99.90;;;;;;5043301;28;20231;-78
2024/02/08 07:50:46;;;;;;;39.50;29.30;;;7.50;99.90;;;;;;5044676;28;20308;-77
2024/02/08 07:53:33;;;;;;;36.80;30.63;;;7.50;99.90;;;;;;5048852;28;21273;-78
2024/02/08 07:56:25;;;;;;;40.72;32.67;;;7.60;99.90;;;;;;5035938;28;20772;-76
2024/02/08 07:58:49;;;;;;;45.50;35.15;;;7.50;99.90;;;;;;5037915;28;20759;-76
2024/02/08 08:01:18;;;;;;;36.38;29.15;;;7.40;99.90;;;;;;5038098;28;20803;-76
2024/02/08 08:03:45;;;;;;;33.42;27.23;;;7.40;99.90;;;;;;5036455;28;20223;-77
2024/02/08 08:06:15;;;;;;;33.15;26.75;;;7.40;99.90;;;;;;5036419;28;20285;-76
2024/02/08 08:08:55;;;;;;;32.80;26.52;;;7.60;99.90;;;;;;5037861;28;20203;-76
2024/02/08 08:11:25;;;;;;;38.30;31.65;;;7.80;99.90;;;;;;5035898;28;20218;-77
2024/02/08 08:14:09;;;;;;;37.95;29.60;;;8.00;99.90;;;;;;5046082;28;20211;-76
2024/02/08 08:16:36;;;;;;;32.28;25.80;;;8.20;99.90;;;;;;5047210;28;20227;-76
2024/02/08 08:19:08;;;;;;;33.05;25.13;;;8.20;99.90;;;;;;5039184;28;20298;-77
2024/02/08 08:22:03;;;;;;;29.88;22.70;;;8.30;99.90;;;;;;5036627;28;20733;-76
2024/02/08 08:24:26;;;;;;;28.45;24.60;;;8.20;99.90;;;;;;5037125;28;20216;-76
2024/02/08 08:27:06;;;;;;;26.63;22.63;;;8.40;99.90;;;;;;5038679;28;20218;-77
2024/02/08 08:29:42;;;;;;;30.52;23.67;;;8.80;99.90;;;;;;5036050;28;20239;-77
2024/02/08 08:37:44;;;;;;;27.52;23.20;;;10.60;99.90;;;;;;5039806;28;20228;-77
2024/02/08 08:40:37;;;;;;;27.13;23.55;;;11.10;99.90;;;;;;5034024;28;20820;-76
2024/02/08 08:43:10;;;;;;;27.30;23.50;;;11.50;99.90;;;;;;5034026;28;20203;-75
2024/02/08 08:45:40;;;;;;;31.98;24.13;;;11.70;99.90;;;;;;5033522;28;20963;-76
2024/02/08 08:48:09;;;;;;;31.98;25.08;;;11.60;99.90;;;;;;5034775;28;20786;-76
2024/02/08 08:50:36;;;;;;;31.33;23.98;;;11.60;99.90;;;;;;5038882;28;20425;-76
2024/02/08 08:53:16;;;;;;;27.92;24.52;;;11.40;99.90;;;;;;5038228;28;20222;-77
2024/02/08 08:55:49;;;;;;;30.92;24.90;;;11.00;99.90;;;;;;5033897;28;20211;-78
2024/02/08 08:58:16;;;;;;;26.73;23.00;;;10.50;99.90;;;;;;5037993;28;20199;-76
2024/02/08 09:00:46;;;;;;;26.33;22.30;;;10.40;99.90;;;;;;5036912;28;20292;-77
2024/02/08 09:03:26;;;;;;;24.05;21.05;;;10.40;99.90;;;;;;5036303;28;20808;-76
2024/02/08 09:05:56;;;;;;;28.77;23.48;;;10.50;99.90;;;;;;5035241;28;20305;-75
2024/02/08 09:08:25;;;;;;;26.20;22.40;;;10.80;99.90;;;;;;5037457;28;20460;-76
2024/02/08 09:10:56;;;;;;;29.80;23.50;;;11.10;99.90;;;;;;5036912;28;20314;-77
2024/02/08 09:13:26;;;;;;;28.15;24.58;;;11.40;99.90;;;;;;5036376;28;20745;-77
2024/02/08 09:16:29;;;;;;;25.83;23.02;;;11.60;99.90;;;;;;5039333;28;20227;-77
2024/02/08 09:19:04;;;;;;;29.02;23.60;;;11.70;99.90;;;;;;5040195;28;20432;-77
2024/02/08 09:21:33;;;;;;;29.45;23.20;;;11.70;99.90;;;;;;5037349;28;20218;-76
2024/02/08 09:24:03;;;;;;;28.27;23.33;;;11.90;99.90;;;;;;5034839;28;20246;-76
2024/02/08 09:26:48;;;;;;;29.00;24.02;;;12.20;99.90;;;;;;5050427;22;20617;-73
2024/02/08 09:29:15;;;;;;;27.33;23.50;;;12.60;99.90;;;;;;5054978;28;20198;-72
2024/02/08 09:31:46;;;;;;;29.13;25.40;;;13.10;99.90;;;;;;5049673;28;20211;-76
2024/02/08 09:34:17;;;;;;;34.90;28.23;;;13.40;99.90;;;;;;5053613;28;20297;-74
2024/02/08 09:36:44;;;;;;;30.70;24.73;;;13.70;99.90;;;;;;5059975;28;20313;-71
2024/02/08 09:39:16;;;;;;;31.67;26.35;;;13.90;99.90;;;;;;5059933;28;20195;-72
2024/02/08 09:41:47;;;;;;;30.20;23.98;;;14.20;99.90;;;;;;5045462;28;20711;-76
2024/02/08 09:44:15;;;;;;;32.47;26.50;;;14.50;99.90;;;;;;5058181;28;20936;-72
2024/02/08 09:46:56;;;;;;;32.67;26.70;;;14.60;99.90;;;;;;5052002;28;20506;-72
2024/02/08 09:49:34;;;;;;;30.90;25.92;;;14.60;99.90;;;;;;5053705;28;20203;-73
2024/02/08 09:52:15;;;;;;;34.13;25.75;;;14.50;99.90;;;;;;5055031;28;20249;-73
2024/02/08 09:54:46;;;;;;;32.25;27.10;;;14.40;99.90;;;;;;5054665;28;20233;-73
2024/02/08 09:57:31;;;;;;;29.52;24.58;;;14.50;99.90;;;;;;5053964;28;20230;-73
2024/02/08 10:00:10;;;;;;;28.65;24.25;;;14.60;99.90;;;;;;5054846;28;20218;-72
2024/02/08 10:02:41;;;;;;;32.10;24.48;;;14.70;99.90;;;;;;5054488;28;20684;-75
2024/02/08 10:05:48;;;;;;;27.48;22.92;;;14.90;99.90;;;;;;5054719;28;20344;-77
2024/02/08 10:08:27;;;;;;;38.40;26.83;;;15.20;99.90;;;;;;5051875;28;20209;-78
2024/02/08 10:11:11;;;;;;;29.45;24.48;;;15.00;99.90;;;;;;5054852;28;20223;-72
2024/02/08 10:13:53;;;;;;;31.40;25.55;;;14.70;99.90;;;;;;5055251;28;20658;-72
2024/02/08 10:16:29;;;;;;;30.33;24.73;;;14.50;99.90;;;;;;5057868;28;20733;-71
2024/02/08 10:19:02;;;;;;;30.75;26.35;;;14.30;99.90;;;;;;5057398;28;20199;-71
2024/02/08 10:21:35;;;;;;;31.95;26.92;;;13.90;99.90;;;;;;5058893;28;20592;-71
2024/02/08 10:24:25;;;;;;;30.63;25.40;;;13.70;99.90;;;;;;5056115;28;20203;-72
2024/02/08 10:26:53;;;;;;;33.95;24.20;;;13.70;99.90;;;;;;5056910;28;20304;-72
2024/02/08 10:29:25;;;;;;;28.38;24.05;;;13.90;99.90;;;;;;5060121;28;20209;-72
2024/02/08 10:31:54;;;;;;;29.27;23.30;;;14.00;99.90;;;;;;5056603;28;20237;-72
2024/02/08 10:34:33;;;;;;;29.55;26.25;;;14.20;99.90;;;;;;5060926;28;20214;-72
2024/02/08 10:37:04;;;;;;;29.73;26.05;;;14.10;99.90;;;;;;5041601;28;20229;-72
2024/02/08 10:39:32;;;;;;;29.38;25.17;;;13.90;99.90;;;;;;5059688;28;20237;-72
2024/02/08 10:42:01;;;;;;;32.30;26.27;;;13.80;99.90;;;;;;5054115;28;20322;-71
2024/02/08 10:44:32;;;;;;;31.02;26.67;;;13.70;99.90;;;;;;5056612;28;20313;-71
2024/02/08 10:49:50;;;;;;;29.92;25.45;;;13.80;99.90;;;;;;5048971;28;20201;-72
2024/02/08 10:52:20;;;;;;;31.42;26.23;;;14.10;99.90;;;;;;5056312;28;20308;-69
2024/02/08 10:54:51;;;;;;;29.88;26.67;;;14.00;99.90;;;;;;5054851;28;20249;-72
2024/02/08 11:00:49;;;;;;;30.90;26.50;;;14.00;99.90;;;;;;5056233;28;20244;-75
2024/02/08 11:03:00;;;;;;;33.40;28.05;;;14.20;99.90;;;;;;5052331;28;20225;-70
2024/02/08 11:05:47;;;;;;;29.35;24.98;;;14.30;99.90;;;;;;5049545;28;20313;-72
2024/02/08 11:08:24;;;;;;;31.65;26.42;;;14.40;99.90;;;;;;5051193;28;20203;-70
2024/02/08 11:10:54;;;;;;;33.15;25.45;;;14.60;99.90;;;;;;5054592;28;20241;-74
2024/02/08 11:13:29;;;;;;;34.35;27.88;;;15.00;99.90;;;;;;5056956;28;20285;-73
2024/02/08 11:16:06;;;;;;;36.92;28.65;;;15.20;99.90;;;;;;5056417;28;20221;-74
2024/02/08 11:18:35;;;;;;;30.63;25.65;;;15.20;99.90;;;;;;5054474;28;20290;-73
2024/02/08 11:21:04;;;;;;;36.58;28.25;;;14.90;99.90;;;;;;5054385;28;20238;-73
2024/02/08 11:23:35;;;;;;;35.15;28.23;;;14.90;99.90;;;;;;5053986;28;20617;-74
2024/02/08 11:26:09;;;;;;;34.08;27.67;;;14.50;99.90;;;;;;5051497;28;20225;-71
2024/02/08 11:28:44;;;;;;;34.70;27.15;;;14.00;99.90;;;;;;5056562;28;20198;-71
2024/02/08 11:31:18;;;;;;;30.85;27.23;;;13.60;99.90;;;;;;5054231;28;20213;-70
2024/02/08 11:33:50;;;;;;;39.00;31.90;;;13.30;99.90;;;;;;5056139;28;20230;-72
2024/02/08 11:36:21;;;;;;;33.10;28.67;;;13.30;99.90;;;;;;5054472;28;20224;-71
2024/02/08 11:38:57;;;;;;;30.92;27.10;;;13.60;99.90;;;;;;5054525;28;20409;-70
2024/02/08 11:41:25;;;;;;;30.38;25.60;;;14.00;99.90;;;;;;5052371;28;21005;-71
2024/02/08 11:44:02;;;;;;;34.00;28.98;;;14.20;99.90;;;;;;5055265;28;20198;-72
2024/02/08 11:46:37;;;;;;;37.33;30.08;;;14.20;99.90;;;;;;5054069;28;20938;-73
2024/02/08 11:49:14;;;;;;;35.05;29.00;;;13.80;99.90;;;;;;5055068;28;20284;-72
2024/02/08 11:51:42;;;;;;;32.35;28.15;;;13.40;99.90;;;;;;5051622;28;20215;-72
2024/02/08 11:54:12;;;;;;;29.48;24.48;;;13.30;99.90;;;;;;5056727;28;20234;-72
2024/02/08 11:56:40;;;;;;;28.23;25.10;;;13.40;99.90;;;;;;5056923;28;20281;-72
2024/02/08 11:59:11;;;;;;;31.45;26.33;;;13.70;99.90;;;;;;5056552;28;20214;-73
2024/02/08 12:01:38;;;;;;;28.98;24.23;;;13.90;99.90;;;;;;5057687;28;20250;-71
2024/02/08 12:04:07;;;;;;;29.77;25.80;;;14.20;99.90;;;;;;5055474;28;20304;-72
2024/02/08 12:06:34;;;;;;;33.35;28.63;;;14.30;99.90;;;;;;5054784;28;20322;-72
2024/02/08 12:09:03;;;;;;;31.83;26.00;;;14.60;99.90;;;;;;5054238;28;21168;-71
2024/02/08 12:11:34;;;;;;;34.30;29.83;;;14.60;99.90;;;;;;5059703;28;20222;-73
2024/02/08 12:14:06;;;;;;;34.10;28.88;;;14.50;99.90;;;;;;5054763;28;20648;-73
2024/02/08 12:16:33;;;;;;;35.83;29.70;;;14.20;99.90;;;;;;5048878;28;20764;-71
2024/02/08 12:19:05;;;;;;;34.40;28.40;;;14.00;99.90;;;;;;5056968;28;20257;-72
2024/02/08 12:21:32;;;;;;;32.70;27.40;;;13.80;99.90;;;;;;5050620;28;20241;-75
2024/02/08 12:23:59;;;;;;;33.78;26.85;;;13.70;99.90;;;;;;5054697;28;20252;-73
2024/02/08 12:26:31;;;;;;;31.95;27.17;;;13.70;99.90;;;;;;5052220;28;20306;-71
2024/02/08 12:29:04;;;;;;;33.28;28.80;;;13.80;99.90;;;;;;5058857;28;20711;-72
2024/02/08 12:31:34;;;;;;;34.08;27.38;;;13.60;99.90;;;;;;5053826;28;20220;-74
2024/02/08 12:34:03;;;;;;;35.60;28.77;;;13.50;99.90;;;;;;5058409;28;20207;-75
2024/02/08 12:36:35;;;;;;;38.88;33.30;;;13.40;99.90;;;;;;5059186;28;20307;-74
2024/02/08 12:39:17;;;;;;;32.17;27.90;;;13.40;99.90;;;;;;5056066;28;20218;-73
2024/02/08 12:41:45;;;;;;;31.88;28.05;;;13.40;99.90;;;;;;5053880;28;20305;-73
2024/02/08 12:44:14;;;;;;;31.63;26.52;;;13.60;99.90;;;;;;5038630;28;20198;-73
2024/02/08 12:46:46;;;;;;;35.47;29.50;;;13.50;99.90;;;;;;5055451;28;20218;-71
2024/02/08 12:49:15;;;;;;;30.95;26.90;;;13.40;99.90;;;;;;5056169;28;20202;-71
2024/02/08 12:51:43;;;;;;;37.65;30.20;;;13.30;99.90;;;;;;5060149;28;20218;-73
2024/02/08 12:54:15;;;;;;;35.35;29.52;;;13.20;99.90;;;;;;5055778;28;20215;-73
2024/02/08 12:56:45;;;;;;;37.55;31.60;;;13.30;99.90;;;;;;5056348;28;20276;-72
2024/02/08 12:59:13;;;;;;;43.85;33.53;;;13.20;99.90;;;;;;5057603;28;20198;-71
2024/02/08 13:01:44;;;;;;;42.65;33.47;;;13.40;99.90;;;;;;5059913;28;20231;-72
2024/02/08 13:04:19;;;;;;;40.25;32.65;;;13.40;99.90;;;;;;5055565;28;20205;-75
2024/02/08 13:06:50;;;;;;;42.10;33.45;;;13.40;99.90;;;;;;5056290;28;20221;-74
2024/02/08 13:09:26;;;;;;;40.42;33.55;;;13.30;99.90;;;;;;5055579;28;21018;-72
2024/02/08 13:12:14;;;;;;;41.08;30.42;;;13.40;99.90;;;;;;5058570;28;20239;-72
2024/02/08 13:14:56;;;;;;;39.30;32.35;;;13.50;99.90;;;;;;5055737;28;20610;-73
2024/02/08 13:17:25;;;;;;;35.28;29.55;;;13.60;99.90;;;;;;5055605;28;20230;-71
2024/02/08 13:19:55;;;;;;;37.15;30.20;;;13.60;99.90;;;;;;5048031;28;20226;-74
2024/02/08 13:22:24;;;;;;;31.40;25.48;;;13.50;99.90;;;;;;5057919;28;20206;-71
2024/02/08 13:24:52;;;;;;;40.17;31.27;;;13.40;99.90;;;;;;5060335;28;20230;-72
2024/02/08 13:27:24;;;;;;;38.85;31.58;;;13.40;99.90;;;;;;5055131;28;20260;-71
2024/02/08 13:29:52;;;;;;;44.70;33.33;;;13.30;99.90;;;;;;5057973;28;20749;-73
2024/02/08 13:32:24;;;;;;;41.67;34.15;;;13.20;99.90;;;;;;5058426;28;20198;-73
2024/02/08 13:34:52;;;;;;;37.95;30.52;;;13.20;99.90;;;;;;5058368;28;20244;-72
2024/02/08 13:37:19;;;;;;;35.15;28.05;;;13.10;99.90;;;;;;5056893;28;20198;-71
2024/02/08 13:39:46;;;;;;;36.85;28.25;;;13.00;99.90;;;;;;5056223;28;20297;-71
2024/02/08 13:42:15;;;;;;;35.08;27.77;;;13.00;99.90;;;;;;5059181;28;20852;-71
2024/02/08 13:44:44;;;;;;;32.20;25.70;;;13.00;99.90;;;;;;5055230;28;20201;-71
2024/02/08 13:47:13;;;;;;;34.80;26.77;;;13.00;99.90;;;;;;5054866;28;20836;-72
2024/02/08 13:49:40;;;;;;;31.48;25.27;;;13.10;99.90;;;;;;5058133;28;20221;-74
2024/02/08 13:52:08;;;;;;;33.55;27.05;;;13.10;99.90;;;;;;5054728;28;20279;-71
2024/02/08 13:54:37;;;;;;;38.30;29.73;;;13.00;99.90;;;;;;5057671;28;20206;-72
2024/02/08 13:57:14;;;;;;;37.25;28.05;;;13.00;99.90;;;;;;5056756;28;20225;-74
2024/02/08 13:59:46;;;;;;;33.60;25.90;;;13.00;99.90;;;;;;5052657;28;20206;-72
2024/02/08 14:02:15;;;;;;;33.58;25.60;;;13.10;99.90;;;;;;5055953;28;20309;-71
2024/02/08 14:04:49;;;;;;;36.03;27.35;;;13.10;99.90;;;;;;5055839;28;20224;-72
2024/02/08 14:07:17;;;;;;;29.67;24.17;;;13.20;99.90;;;;;;5056734;28;20232;-72
2024/02/08 14:09:46;;;;;;;36.58;27.88;;;13.10;99.90;;;;;;5053685;28;20509;-72
2024/02/08 14:12:24;;;;;;;36.72;27.45;;;13.20;99.90;;;;;;5051677;28;20306;-72
2024/02/08 14:14:53;;;;;;;34.10;27.92;;;13.20;99.90;;;;;;5048787;28;20222;-72
2024/02/08 14:17:27;;;;;;;35.92;27.50;;;13.20;99.90;;;;;;5056577;28;20194;-72
2024/02/08 14:19:55;;;;;;;31.13;26.55;;;13.10;99.90;;;;;;5055721;28;20209;-74
2024/02/08 14:22:24;;;;;;;35.40;28.42;;;13.20;99.90;;;;;;5053985;28;20264;-74
2024/02/08 14:24:52;;;;;;;35.90;26.25;;;13.20;99.90;;;;;;5054291;28;20260;-72
2024/02/08 14:27:23;;;;;;;31.33;24.67;;;13.00;99.90;;;;;;5056087;28;20214;-71
2024/02/08 14:29:50;;;;;;;32.90;26.38;;;13.00;99.90;;;;;;5055869;28;20624;-72
2024/02/08 14:32:21;;;;;;;37.30;28.42;;;13.00;99.90;;;;;;5054202;28;20222;-74
2024/02/08 14:34:49;;;;;;;35.17;27.52;;;12.90;99.90;;;;;;5050077;28;20536;-75
2024/02/08 14:37:21;;;;;;;36.22;28.17;;;12.80;99.90;;;;;;5052664;28;20226;-73